Latest Weather Observations for Port Lincoln Airport

IDS60801

Issued at 5:01 pm CST Friday 29 July 2016 (issued every 30 minutes, with the page automatically refreshed every 10 minutes)

About weather observations | Map of weather stations | Latest weather observations for SA | Other Formats
Station Details ID: 018192 Name: PORT LINCOLN AWS Lat: -34.60 Lon: 135.88 Height: 8.5 m
Data from the previous 72 hours. | See also: Recent months at Port Lincoln Airport
Date/Time
CST
Temp
°C
App
Temp
°C
Dew
Point
°C
Rel
Hum
%
Delta-T
°C
Wind Press
QNH
hPa
Press
MSL
hPa
Rain since
9am
mm
Dir  Spd
km/h
Gust
km/h
Spd
kts
Gust
kts
29/05:00pm 13.5 11.2 10.3 81 1.7 NE 13 15 7 8 1021.2 1021.2 0.0
29/04:30pm 13.7 11.4 10.3 80 1.8 ENE 13 17 7 9 1021.2 1021.2 0.0
29/04:00pm 14.0 11.6 10.0 77 2.1 ENE 13 15 7 8 1021.3 1021.3 0.0
29/03:30pm 14.2 12.3 10.4 78 2.0 ENE 11 15 6 8 1021.5 1021.5 0.0
29/03:00pm 14.5 12.6 10.5 77 2.1 NE 11 15 6 8 1021.7 1021.7 0.0
29/02:30pm 14.5 12.0 10.9 79 1.9 ENE 15 19 8 10 1022.0 1022.0 0.0
29/02:00pm 14.2 11.5 10.2 77 2.1 ENE 15 17 8 9 1022.3 1022.3 0.0
29/01:30pm 14.3 12.0 10.3 77 2.1 ENE 13 17 7 9 1022.7 1022.7 0.0
29/01:00pm 14.4 12.7 9.8 74 2.4 ENE 9 15 5 8 1023.1 1023.1 0.0
29/12:30pm 14.0 11.9 9.6 75 2.2 ENE 11 17 6 9 1023.6 1023.6 0.0
29/12:00pm 13.8 10.9 9.6 76 2.1 SSE 15 17 8 9 1023.9 1023.9 0.0
29/11:30am 14.7 13.0 9.7 72 2.6 ENE 9 13 5 7 1024.1 1024.1 0.0
29/11:00am 14.8 13.4 9.6 71 2.7 N 7 11 4 6 1024.6 1024.6 0.0
29/10:30am 13.8 13.0 9.6 76 2.1 N 4 7 2 4 1024.7 1024.7 0.0
29/10:00am 12.2 11.5 8.5 78 1.8 NE 2 9 1 5 1024.9 1024.9 0.0
29/09:30am 11.2 10.1 8.6 84 1.3 N 4 7 2 4 1024.8 1024.8 0.0
29/09:00am 10.6 8.9 8.5 87 1.0 N 7 11 4 6 1024.4 1024.4 0.0
29/08:30am 9.1 7.4 7.5 90 0.8 W 6 6 3 3 1024.7 1024.7 0.0
29/08:00am 9.0 7.3 7.6 91 0.7 S 6 9 3 5 1024.6 1024.6 0.0
29/07:30am 8.5 7.4 7.1 91 0.7 N 2 7 1 4 1024.1 1024.1 0.0
29/07:00am 8.0 6.5 6.8 92 0.6 NNW 4 11 2 6 1024.1 1024.1 0.0
29/06:30am 8.2 6.3 6.8 91 0.6 NW 6 9 3 5 1024.4 1024.4 0.0
29/06:00am 9.1 5.7 7.5 90 0.8 N 15 20 8 11 1024.0 1024.0 0.0
29/05:30am 9.0 5.3 7.8 92 0.6 NNW 17 24 9 13 1024.0 1024.0 0.0
29/05:00am 8.9 6.3 7.7 92 0.6 NW 11 15 6 8 1024.8 1024.8 0.0
29/04:30am 9.0 6.4 7.8 92 0.6 N 11 13 6 7 1024.7 1024.7 0.0
29/04:00am 9.1 6.9 7.9 92 0.6 NW 9 11 5 6 1025.1 1025.1 0.0
29/03:30am 9.2 7.0 8.0 92 0.6 NNW 9 11 5 6 1024.8 1024.8 0.0
29/03:00am 9.7 7.6 8.3 91 0.7 N 9 11 5 6 1024.9 1024.9 0.0
29/02:30am 10.0 8.5 8.6 91 0.7 NW 6 7 3 4 1025.0 1025.0 0.0
29/02:00am 10.5 8.5 8.8 89 0.8 N 9 11 5 6 1025.0 1025.0 0.0
29/01:30am 10.8 9.3 9.1 89 0.8 N 7 9 4 5 1025.4 1025.4 0.0
29/01:00am 11.0 9.7 9.3 89 0.8 NNW 6 9 3 5 1025.5 1025.5 0.0
29/12:30am 11.1 9.9 9.4 89 0.8 N 6 9 3 5 1025.7 1025.7 0.0
29/12:00am 11.3 10.1 9.4 88 0.9 NW 6 9 3 5 1026.1 1026.1 0.0
 
Date/Time
CST
Temp
°C
App
Temp
°C
Dew
Point
°C
Rel
Hum
%
Delta-T
°C
Wind Press
QNH
hPa
Press
MSL
hPa
Rain since
9am
mm
Dir  Spd
km/h
Gust
km/h
Spd
kts
Gust
kts
28/11:30pm 11.2 9.8 9.6 90 0.8 N 7 9 4 5 1026.1 1026.1 0.0
28/11:00pm 11.2 9.9 9.8 91 0.7 N 7 9 4 5 1026.3 1026.3 0.0
28/10:30pm 11.2 10.0 9.6 90 0.8 NNW 6 11 3 6 1026.5 1026.5 0.0
28/10:00pm 11.1 9.4 9.9 92 0.6 N 9 15 5 8 1026.6 1026.6 0.0
28/09:30pm 11.2 9.2 10.0 92 0.6 NNW 11 15 6 8 1026.6 1026.6 0.0
28/09:00pm 11.2 9.6 10.1 93 0.6 N 9 11 5 6 1027.0 1027.0 0.0
28/08:30pm 11.2 10.1 10.1 93 0.6 N 6 7 3 4 1026.9 1026.9 0.0
28/08:00pm 10.9 9.8 10.0 94 0.5 N 6 9 3 5 1026.9 1026.9 0.0
28/07:30pm 10.8 9.5 9.9 94 0.5 NNW 7 9 4 5 1027.1 1027.1 0.0
28/07:00pm 11.0 9.4 10.1 94 0.5 N 9 11 5 6 1027.1 1027.1 0.0
28/06:30pm 11.0 9.3 9.9 93 0.6 NW 9 11 5 6 1027.2 1027.2 0.0
28/06:17pm 11.6 10.0 10.3 92 0.7 WNW 9 13 5 7 1027.1 1027.1 0.0
28/06:00pm 12.1 9.7 10.0 87 1.1 W 13 17 7 9 1027.1 1027.1 0.0
28/05:30pm 12.5 9.6 9.7 83 1.4 W 15 20 8 11 1027.0 1027.0 0.0
28/05:00pm 12.7 9.6 10.2 85 1.3 W 17 24 9 13 1026.9 1026.9 0.0
28/04:30pm 12.6 10.2 10.1 85 1.3 WNW 13 20 7 11 1026.8 1026.8 0.0
28/04:00pm 13.3 9.7 9.7 79 1.8 WNW 19 24 10 13 1026.8 1026.8 0.0
28/03:30pm 13.3 10.1 9.9 80 1.7 WNW 17 22 9 12 1026.8 1026.8 0.0
28/03:00pm 13.9 9.7 9.7 76 2.1 WNW 22 30 12 16 1027.0 1027.0 0.0
28/02:30pm 13.9 9.9 8.9 72 2.5 NW 20 32 11 17 1026.9 1026.9 0.0
28/02:00pm 14.0 10.4 9.8 76 2.2 WNW 19 24 10 13 1027.1 1027.1 0.0
28/01:30pm 13.9 9.9 9.1 73 2.4 NW 20 33 11 18 1027.4 1027.4 0.0
28/01:00pm 13.8 9.8 9.0 73 2.4 WNW 20 30 11 16 1027.8 1027.8 0.0
28/12:30pm 13.8 9.9 9.3 74 2.3 NW 20 30 11 16 1028.1 1028.1 0.0
28/12:00pm 13.5 9.8 9.6 77 2.0 NW 19 28 10 15 1028.5 1028.5 0.0
28/11:30am 13.5 9.6 8.6 72 2.4 NW 19 24 10 13 1028.7 1028.7 0.0
28/11:00am 13.5 9.7 9.2 75 2.2 NW 19 28 10 15 1029.1 1029.1 0.0
28/10:30am 13.0 10.3 8.9 76 2.0 NNW 13 17 7 9 1029.4 1029.4 0.0
28/10:00am 13.0 10.4 9.4 79 1.8 NNW 13 17 7 9 1029.7 1029.7 0.0
28/09:30am 12.8 9.9 8.3 74 2.2 WNW 13 19 7 10 1029.7 1029.7 0.0
28/09:00am 12.5 9.2 8.0 74 2.2 WNW 15 19 8 10 1029.3 1029.3 0.0
28/08:30am 11.8 9.4 8.5 80 1.6 NW 11 15 6 8 1029.1 1029.1 0.0
28/08:00am 11.4 9.3 8.4 82 1.5 NW 9 11 5 6 1029.0 1029.0 0.0
28/07:30am 11.1 9.1 8.7 85 1.2 WNW 9 13 5 7 1028.9 1028.9 0.0
28/07:00am 10.9 8.9 8.7 86 1.1 WNW 9 11 5 6 1028.6 1028.6 0.0
28/06:30am 11.2 9.1 8.4 83 1.4 WNW 9 13 5 7 1028.2 1028.2 0.0
28/06:00am 11.1 9.5 8.7 85 1.2 WNW 7 11 4 6 1027.9 1027.9 0.0
28/05:30am 11.2 9.6 8.8 85 1.2 W 7 9 4 5 1027.8 1027.8 0.0
28/05:00am 11.1 9.5 8.8 86 1.1 WSW 7 11 4 6 1027.6 1027.6 0.0
28/04:30am 11.2 9.6 8.8 85 1.2 W 7 9 4 5 1027.6 1027.6 0.0
28/04:00am 11.4 9.4 8.8 84 1.3 WNW 9 11 5 6 1027.7 1027.7 0.0
28/03:30am 11.5 9.6 9.1 85 1.2 NW 9 15 5 8 1027.6 1027.6 0.0
28/03:00am 11.2 9.8 9.5 89 0.8 WSW 7 9 4 5 1027.7 1027.7 0.0
28/02:30am 11.2 9.8 9.5 89 0.8 SSW 7 11 4 6 1027.9 1027.9 0.0
28/02:00am 10.9 9.1 9.5 91 0.7 WNW 9 11 5 6 1028.0 1028.0 0.0
28/01:30am 10.8 8.6 9.2 90 0.8 NNW 11 13 6 7 1028.0 1028.0 0.0
28/01:00am 10.7 8.8 9.1 90 0.8 NNW 9 11 5 6 1027.9 1027.9 0.0
28/12:30am 11.2 8.5 9.1 87 1.0 WNW 13 15 7 8 1027.8 1027.8 0.0
28/12:00am 10.3 8.1 9.2 93 0.5 NW 11 11 6 6 1027.9 1027.9 0.0
 
Date/Time
CST
Temp
°C
App
Temp
°C
Dew
Point
°C
Rel
Hum
%
Delta-T
°C
Wind Press
QNH
hPa
Press
MSL
hPa
Rain since
9am
mm
Dir  Spd
km/h
Gust
km/h
Spd
kts
Gust
kts
27/11:30pm 10.0 8.1 9.2 95 0.4 NNW 9 13 5 7 1027.8 1027.8 0.0
27/11:00pm 10.0 8.1 9.1 94 0.4 NW 9 11 5 6 1027.9 1027.9 0.0
27/10:30pm 9.8 7.8 8.6 92 0.6 W 9 11 5 6 1028.2 1028.2 0.0
27/10:00pm 10.2 7.8 8.8 91 0.7 WNW 11 13 6 7 1028.2 1028.2 0.0
27/09:30pm 9.6 7.4 8.0 90 0.8 NW 9 11 5 6 1028.2 1028.2 0.0
27/09:00pm 10.6 8.2 8.7 88 0.9 NW 11 13 6 7 1028.3 1028.3 0.0
27/08:30pm 10.7 8.3 8.5 86 1.1 NW 11 13 6 7 1028.2 1028.2 0.0
27/08:00pm 11.0 8.2 8.4 84 1.3 WNW 13 17 7 9 1028.1 1028.1 0.0
27/07:30pm 10.6 8.1 8.4 86 1.1 NW 11 13 6 7 1028.2 1028.2 0.0
27/07:00pm 10.3 7.8 8.2 87 1.0 NW 11 13 6 7 1027.9 1027.9 0.0
27/06:30pm 10.7 8.9 7.9 83 1.3 W 7 9 4 5 1027.7 1027.7 0.0
27/06:00pm 10.7 8.7 8.8 88 0.9 WNW 9 11 5 6 1027.4 1027.4 0.0
27/05:30pm 10.7 8.6 8.1 84 1.3 WNW 9 11 5 6 1027.1 1027.1 0.0
27/05:00pm 11.9 9.1 8.4 79 1.7 WNW 13 19 7 10 1026.9 1026.9 0.0
27/04:30pm 12.0 8.0 8.3 78 1.8 WNW 19 26 10 14 1027.1 1027.1 0.0
27/04:00pm 12.6 8.4 7.3 70 2.6 W 19 26 10 14 1026.8 1026.8 0.0
27/03:30pm 12.8 8.4 7.5 70 2.6 W 20 28 11 15 1026.7 1026.7 0.0
27/03:00pm 13.2 8.8 7.4 68 2.8 W 20 28 11 15 1026.1 1026.1 0.0
27/02:30pm 13.2 8.0 7.4 68 2.8 WSW 24 30 13 16 1025.9 1025.9 0.0
27/02:00pm 13.7 9.0 7.9 68 2.9 WSW 22 30 12 16 1025.8 1025.8 0.0
27/01:30pm 13.6 9.1 6.9 64 3.2 WSW 20 30 11 16 1025.7 1025.7 0.0
27/01:00pm 13.8 9.4 6.7 62 3.4 WSW 19 24 10 13 1025.6 1025.6 0.0
27/12:30pm 13.6 9.4 7.4 66 3.0 SW 19 26 10 14 1025.7 1025.7 0.0
27/12:00pm 14.4 10.1 7.7 64 3.3 SW 20 30 11 16 1025.8 1025.8 0.0
27/11:30am 13.5 9.0 6.8 64 3.2 WSW 20 28 11 15 1026.0 1026.0 0.0
27/11:00am 13.2 9.4 7.6 69 2.7 WSW 17 26 9 14 1026.0 1026.0 0.0
27/10:30am 13.1 9.2 6.9 66 3.0 SW 17 22 9 12 1025.8 1025.8 0.0
27/10:00am 12.8 8.9 7.3 69 2.7 SW 17 20 9 11 1025.5 1025.5 0.0
27/09:30am 11.9 8.8 7.2 73 2.2 WSW 13 17 7 9 1025.1 1025.1 0.0
27/09:00am 11.2 8.5 7.3 77 1.9 WSW 11 15 6 8 1024.4 1024.4 5.2
27/08:30am 10.5 8.1 7.2 80 1.6 WSW 9 11 5 6 1024.1 1024.1 5.2
27/08:00am 10.1 6.8 6.6 79 1.6 WSW 13 19 7 10 1023.7 1023.7 5.2
27/07:30am 10.2 6.4 5.8 74 2.0 SW 15 22 8 12 1023.1 1023.1 5.2
27/07:00am 10.5 6.6 5.5 71 2.3 SW 15 19 8 10 1022.6 1022.6 5.2
27/06:30am 10.3 6.4 5.3 71 2.3 SW 15 20 8 11 1022.1 1022.1 5.2
27/06:00am 10.3 5.4 5.1 70 2.3 SSW 20 26 11 14 1021.7 1021.7 5.2
27/05:30am 10.7 6.5 5.9 72 2.2 SW 17 24 9 13 1021.1 1021.1 5.2
27/05:00am 10.1 7.2 6.6 79 1.6 WSW 11 15 6 8 1020.8 1020.8 5.2
27/04:30am 10.7 7.3 5.9 72 2.2 SW 13 20 7 11 1020.1 1020.1 5.2
27/04:00am 10.8 7.1 6.4 74 2.1 SW 15 20 8 11 1019.9 1019.9 5.2
27/03:30am 10.9 6.9 6.8 76 1.9 SW 17 22 9 12 1019.6 1019.6 5.2
27/03:00am 11.0 6.3 6.2 72 2.2 SW 20 26 11 14 1019.5 1019.5 5.2
27/02:30am 10.9 5.9 6.6 75 2.0 SW 22 32 12 17 1019.3 1019.3 5.2
27/02:00am 11.1 5.5 7.2 77 1.9 SW 26 35 14 19 1019.1 1019.1 5.2
27/01:30am 11.0 6.7 7.7 80 1.6 SW 20 32 11 17 1018.8 1018.8 5.2
27/01:00am 10.8 6.3 8.6 86 1.1 SW 22 30 12 16 1018.1 1018.1 5.2
27/12:30am 10.9 5.4 9.2 89 0.8 WSW 28 44 15 24 1017.7 1017.7 5.2
27/12:00am 10.8 6.3 8.4 85 1.2 SW 22 32 12 17 1017.0 1017.0 5.2
 
Date/Time
CST
Temp
°C
App
Temp
°C
Dew
Point
°C
Rel
Hum
%
Delta-T
°C
Wind Press
QNH
hPa
Press
MSL
hPa
Rain since
9am
mm
Dir  Spd
km/h
Gust
km/h
Spd
kts
Gust
kts
26/11:30pm 10.8 6.8 9.1 89 0.8 WSW 20 26 11 14 1016.5 1016.5 5.2
26/11:00pm 10.7 6.2 8.6 87 1.0 WSW 22 30 12 16 1016.0 1016.0 5.2
26/10:51pm 11.1 5.5 8.8 86 1.1 WSW 28 37 15 20 1015.8 1015.8 5.2
26/10:35pm 11.0 5.1 9.1 88 0.9 WSW 30 48 16 26 1015.9 1015.9 5.2
26/10:34pm 11.0 5.4 8.9 87 1.0 WSW 28 46 15 25 1015.9 1015.9 5.2
26/10:30pm 11.1 7.0 8.5 84 1.3 WSW 20 32 11 17 1015.8 1015.8 5.2
26/10:00pm 11.1 6.6 8.7 85 1.2 WSW 22 28 12 15 1015.2 1015.2 5.2
26/09:30pm 11.0 6.4 8.2 83 1.4 W 22 30 12 16 1014.6 1014.6 5.2
26/09:00pm 11.1 5.0 8.3 83 1.4 WSW 30 41 16 22 1014.0 1014.0 5.2
26/08:30pm 11.1 4.5 7.8 80 1.6 WSW 32 48 17 26 1013.6 1013.6 5.0
26/08:14pm 11.5 4.9 7.6 77 1.9 WSW 32 50 17 27 1013.2 1013.2 5.0
26/08:00pm 11.8 4.2 7.7 76 2.0 WSW 37 54 20 29 1012.9 1012.9 5.0
26/07:30pm 11.5 5.0 8.9 84 1.3 W 33 44 18 24 1012.3 1012.3 5.0
26/07:16pm 11.4 4.9 9.0 85 1.2 W 33 44 18 24 1012.2 1012.2 5.0
26/07:00pm 11.4 5.1 9.1 86 1.1 WSW 32 44 17 24 1011.9 1011.9 5.0
26/06:56pm 11.6 6.1 9.3 86 1.2 WSW 28 43 15 23 1012.0 1012.0 5.0
26/06:31pm 11.6 4.7 8.8 83 1.4 WSW 35 54 19 29 1011.2 1011.2 5.0
26/06:30pm 11.7 4.4 8.7 82 1.5 WSW 37 54 20 29 1011.2 1011.2 5.0
26/06:22pm 11.9 5.3 8.7 81 1.6 WSW 33 54 18 29 1011.2 1011.2 5.0
26/06:00pm 11.6 5.4 10.2 91 0.7 WSW 33 44 18 24 1010.7 1010.7 5.0
26/05:56pm 11.5 4.9 10.1 91 0.7 WSW 35 46 19 25 1010.5 1010.5 5.0
26/05:30pm 11.1 2.4 10.0 93 0.6 W 46 70 25 38 1010.2 1010.2 5.0

Other Formats:

Comma delimited format used in spreadsheet applications
http://www.bom.gov.au/fwo/IDS60801/IDS60801.95661.axf

JavaScript Object Notation format (JSON) in row-major order
http://www.bom.gov.au/fwo/IDS60801/IDS60801.95661.json